Time;durP1;ratioP1;P1;durP2;ratioP2;P2;SDS_P1;SDS_P2;PMS_P1;PMS_P2;Temp;Humidity;BMP_temperature;BMP_pressure;BME280_temperature;BME280_humidity;BME280_pressure;Samples;Min_cycle;Max_cycle;Signal;HPM_P1;HPM_P2
2022/01/25 00:15:03;;;;;;;71.22;34.55;;;3.60;99.90;;;;;;5005753;28;20049;-81
2022/01/25 00:29:46;;;;;;;67.22;34.15;;;3.60;99.90;;;;;;4987759;28;20062;-83
2022/01/25 00:32:13;;;;;;;71.90;34.65;;;3.60;99.90;;;;;;4971241;28;20053;-82
2022/01/25 00:34:39;;;;;;;68.65;37.55;;;3.60;99.90;;;;;;5006161;28;20061;-83
2022/01/25 00:37:05;;;;;;;79.93;35.47;;;3.70;99.90;;;;;;4988703;28;20488;-83
2022/01/25 00:39:31;;;;;;;68.85;36.28;;;3.60;99.90;;;;;;5006773;28;20068;-82
2022/01/25 00:41:57;;;;;;;68.50;34.80;;;3.60;99.90;;;;;;5005245;28;20050;-82
2022/01/25 00:44:23;;;;;;;68.20;34.95;;;3.60;99.90;;;;;;5005375;28;20128;-83
2022/01/25 00:46:48;;;;;;;74.78;36.75;;;3.60;99.90;;;;;;4988092;28;20143;-82
2022/01/25 00:49:25;;;;;;;67.15;35.53;;;3.60;99.90;;;;;;5005912;28;20054;-83
2022/01/25 00:56:50;;;;;;;65.53;32.78;;;3.60;99.90;;;;;;4988888;28;20133;-82
2022/01/25 00:59:21;;;;;;;71.10;36.70;;;3.60;99.90;;;;;;4988034;28;20493;-82
2022/01/25 01:01:48;;;;;;;62.65;32.47;;;3.60;99.90;;;;;;4995965;28;20084;-82
2022/01/25 01:04:15;;;;;;;70.60;36.15;;;3.60;99.90;;;;;;5025070;28;20057;-83
2022/01/25 01:06:43;;;;;;;66.72;32.92;;;3.60;99.90;;;;;;5025392;28;20116;-83
2022/01/25 01:09:10;;;;;;;74.57;35.67;;;3.60;99.90;;;;;;5025223;28;20107;-82
2022/01/25 01:11:44;;;;;;;63.33;32.28;;;3.60;99.90;;;;;;5007315;28;20065;-82
2022/01/25 01:14:20;;;;;;;68.43;32.75;;;3.70;99.90;;;;;;5024551;28;20124;-83
2022/01/25 01:53:53;;;;;;;75.07;39.05;;;3.60;99.90;;;;;;5007563;28;20555;-82
2022/01/25 01:56:19;;;;;;;68.30;36.20;;;3.60;99.90;;;;;;5006935;28;20057;-82
2022/01/25 01:58:45;;;;;;;69.40;35.97;;;3.50;99.90;;;;;;5024571;28;20060;-82
2022/01/25 02:01:15;;;;;;;77.13;36.47;;;3.60;99.90;;;;;;5025200;28;20390;-83
2022/01/25 02:03:41;;;;;;;75.72;39.08;;;3.60;99.90;;;;;;5025602;28;20060;-82
2022/01/25 02:06:07;;;;;;;79.63;39.42;;;3.60;99.90;;;;;;5027931;28;20057;-83
2022/01/25 02:08:34;;;;;;;74.00;38.17;;;3.60;99.90;;;;;;5029282;28;20583;-82
2022/01/25 02:11:01;;;;;;;77.40;38.33;;;3.50;99.90;;;;;;5029448;28;20080;-82
2022/01/25 02:13:26;;;;;;;75.50;37.88;;;3.50;99.90;;;;;;5029804;28;20045;-82
2022/01/25 02:15:55;;;;;;;75.82;38.50;;;3.50;99.90;;;;;;5029825;28;20053;-82
2022/01/25 02:23:31;;;;;;;74.03;37.92;;;3.50;99.90;;;;;;5029766;28;20053;-83
2022/01/25 02:25:59;;;;;;;78.93;41.05;;;3.50;99.90;;;;;;5030579;28;20049;-83
2022/01/25 02:28:32;;;;;;;73.72;37.38;;;3.60;99.90;;;;;;5028722;28;20168;-82
2022/01/25 02:30:58;;;;;;;79.05;40.58;;;3.60;99.90;;;;;;5029622;28;20050;-82
2022/01/25 02:33:25;;;;;;;83.82;42.13;;;3.60;99.90;;;;;;5028744;28;20101;-83
2022/01/25 02:35:51;;;;;;;77.93;39.88;;;3.50;99.90;;;;;;5028754;28;20591;-82
2022/01/25 02:38:21;;;;;;;75.90;39.30;;;3.50;99.90;;;;;;5028957;28;20057;-83
2022/01/25 02:40:47;;;;;;;80.97;40.58;;;3.50;99.90;;;;;;5010229;28;20053;-82
2022/01/25 02:43:16;;;;;;;78.15;41.72;;;3.50;99.90;;;;;;5027988;28;20537;-82
2022/01/25 02:45:45;;;;;;;77.47;39.55;;;3.50;99.90;;;;;;5027528;28;20498;-82
2022/01/25 02:48:30;;;;;;;80.75;40.50;;;3.50;99.90;;;;;;5011451;28;20413;-82
2022/01/25 02:51:04;;;;;;;78.90;41.00;;;3.50;99.90;;;;;;5029778;28;20045;-81
2022/01/25 02:53:30;;;;;;;79.65;39.95;;;3.50;99.90;;;;;;5027618;28;20077;-82
2022/01/25 02:55:56;;;;;;;86.45;41.72;;;3.60;99.90;;;;;;5027367;28;20519;-82
2022/01/25 02:58:22;;;;;;;78.28;40.60;;;3.50;99.90;;;;;;5010033;28;20050;-81
2022/01/25 03:00:47;;;;;;;82.40;39.70;;;3.50;99.90;;;;;;5028210;28;20085;-83
2022/01/25 03:03:13;;;;;;;81.85;40.65;;;3.50;99.90;;;;;;5010380;28;20485;-82
2022/01/25 03:05:39;;;;;;;83.07;40.22;;;3.50;99.90;;;;;;5027786;28;20053;-82
2022/01/25 03:08:04;;;;;;;78.25;41.45;;;3.40;99.90;;;;;;5009499;28;20064;-82
2022/01/25 03:10:36;;;;;;;78.55;37.55;;;3.50;99.90;;;;;;5028140;28;20091;-82
2022/01/25 03:13:02;;;;;;;82.90;42.60;;;3.50;99.90;;;;;;5027685;28;20056;-82
2022/01/25 03:16:19;;;;;;;81.43;40.42;;;3.50;99.90;;;;;;5027580;28;20389;-83
2022/01/25 03:18:36;;;;;;;79.33;39.07;;;3.50;99.90;;;;;;5020789;28;20188;-82
2022/01/25 03:24:03;;;;;;;81.80;40.08;;;3.50;99.90;;;;;;4993677;28;20140;-82
2022/01/25 03:26:28;;;;;;;89.03;43.70;;;3.50;99.90;;;;;;5027894;28;20053;-82
2022/01/25 03:28:55;;;;;;;84.10;41.38;;;3.40;99.90;;;;;;5027680;28;20056;-82
2022/01/25 03:31:21;;;;;;;79.60;39.92;;;3.50;99.90;;;;;;5010428;28;20064;-83
2022/01/25 03:33:46;;;;;;;83.35;42.08;;;3.60;99.90;;;;;;5010081;28;20061;-82
2022/01/25 03:36:14;;;;;;;79.45;38.70;;;3.50;99.90;;;;;;5027949;28;20076;-82
2022/01/25 03:38:40;;;;;;;85.75;40.97;;;3.50;99.90;;;;;;5027934;28;20096;-83
2022/01/25 03:41:09;;;;;;;81.93;41.95;;;3.50;99.90;;;;;;5027155;28;20081;-83
2022/01/25 03:43:35;;;;;;;82.82;40.13;;;3.50;99.90;;;;;;5028186;28;20125;-82
2022/01/25 03:46:19;;;;;;;85.45;39.45;;;3.50;99.90;;;;;;5028269;28;20081;-83
2022/01/25 03:51:30;;;;;;;76.35;39.42;;;3.70;99.90;;;;;;5027892;28;20053;-82
2022/01/25 03:53:56;;;;;;;83.65;40.97;;;3.50;99.90;;;;;;5026582;28;20056;-82
2022/01/25 03:56:25;;;;;;;87.05;42.00;;;3.50;99.90;;;;;;5026325;28;20049;-82
2022/01/25 03:58:51;;;;;;;82.63;41.42;;;3.50;99.90;;;;;;5027464;28;20438;-82
2022/01/25 04:01:17;;;;;;;78.47;40.67;;;3.80;99.90;;;;;;5025868;28;20064;-82
2022/01/25 04:03:56;;;;;;;81.50;41.33;;;3.50;99.90;;;;;;5027059;28;20045;-83
2022/01/25 04:06:22;;;;;;;75.40;38.88;;;3.50;99.90;;;;;;5027921;28;20057;-83
2022/01/25 04:08:48;;;;;;;80.78;40.72;;;3.50;99.90;;;;;;5008843;28;20053;-83
2022/01/25 04:11:13;;;;;;;82.53;41.63;;;3.50;99.90;;;;;;5027190;28;20064;-82
2022/01/25 04:13:42;;;;;;;82.97;39.10;;;3.50;99.90;;;;;;5026741;28;20049;-83
2022/01/25 04:16:14;;;;;;;88.80;43.83;;;3.50;99.90;;;;;;5009334;28;20053;-81
2022/01/25 04:26:46;;;;;;;81.67;39.67;;;3.50;99.90;;;;;;5025161;28;20155;-83
2022/01/25 04:29:12;;;;;;;82.70;42.38;;;3.50;99.90;;;;;;5024456;28;20073;-82
2022/01/25 04:31:38;;;;;;;88.90;41.25;;;3.50;99.90;;;;;;5025176;28;20049;-82
2022/01/25 04:34:24;;;;;;;79.53;40.45;;;3.50;99.90;;;;;;5026521;28;20052;-83
2022/01/25 04:50:55;;;;;;;83.40;39.17;;;3.50;99.90;;;;;;5026093;28;20053;-82
2022/01/25 04:53:27;;;;;;;82.18;40.17;;;3.50;99.90;;;;;;5025544;28;20057;-82
2022/01/25 04:56:06;;;;;;;79.68;39.13;;;3.50;99.90;;;;;;5026233;28;20065;-81
2022/01/25 04:58:41;;;;;;;79.88;42.03;;;3.50;99.90;;;;;;5025801;28;20103;-81
2022/01/25 05:01:07;;;;;;;81.43;41.72;;;3.70;99.90;;;;;;5008305;28;20123;-83
2022/01/25 05:03:52;;;;;;;79.90;41.22;;;3.50;99.90;;;;;;5008168;28;20579;-82
2022/01/25 05:06:18;;;;;;;80.45;42.22;;;3.50;99.90;;;;;;5034069;28;20041;-82
2022/01/25 05:08:49;;;;;;;83.85;39.70;;;3.50;99.90;;;;;;5026423;28;20092;-82
2022/01/25 05:11:25;;;;;;;89.55;42.67;;;3.50;99.90;;;;;;5026173;28;20424;-81
2022/01/25 05:16:31;;;;;;;82.50;39.00;;;3.50;99.90;;;;;;5026864;28;20057;-82
2022/01/25 05:19:21;;;;;;;81.25;39.72;;;3.50;99.90;;;;;;5008760;28;20053;-82
2022/01/25 05:24:38;;;;;;;83.70;42.20;;;3.50;99.90;;;;;;5007603;28;20057;-82
2022/01/25 05:27:06;;;;;;;81.13;40.08;;;3.50;99.90;;;;;;5025101;28;20041;-82
2022/01/25 05:29:32;;;;;;;76.65;39.15;;;4.20;99.90;;;;;;5025602;28;20824;-82
2022/01/25 05:31:58;;;;;;;78.32;39.00;;;3.50;99.90;;;;;;5009189;28;20041;-82
2022/01/25 05:34:24;;;;;;;81.18;39.72;;;3.50;99.90;;;;;;5008826;28;20045;-82
2022/01/25 05:36:50;;;;;;;79.82;39.60;;;3.50;99.90;;;;;;5029673;28;20175;-82
2022/01/25 05:39:21;;;;;;;81.63;39.28;;;3.50;99.90;;;;;;5033306;28;20049;-82
2022/01/25 05:41:55;;;;;;;77.70;37.72;;;3.50;99.90;;;;;;5019657;28;20102;-81
2022/01/25 05:49:22;;;;;;;76.88;38.75;;;3.50;99.90;;;;;;5029177;28;20374;-82
2022/01/25 05:51:47;;;;;;;76.90;38.05;;;3.50;99.90;;;;;;5009786;28;20049;-83
2022/01/25 05:54:13;;;;;;;75.32;39.10;;;3.50;99.90;;;;;;5028310;28;20120;-82
2022/01/25 05:56:39;;;;;;;80.18;39.03;;;3.50;99.90;;;;;;5012472;28;20053;-83
2022/01/25 05:59:04;;;;;;;77.28;38.33;;;3.60;99.90;;;;;;5006288;28;20543;-82
2022/01/25 06:01:32;;;;;;;81.45;38.58;;;3.50;99.90;;;;;;5024006;28;20528;-84
2022/01/25 06:03:58;;;;;;;80.38;41.30;;;3.50;99.90;;;;;;5005485;28;20408;-83
2022/01/25 06:06:23;;;;;;;79.90;38.53;;;3.50;99.90;;;;;;5005112;28;20377;-83
2022/01/25 06:08:49;;;;;;;73.65;38.13;;;3.50;99.90;;;;;;5006003;28;20051;-84
2022/01/25 06:11:15;;;;;;;81.82;40.38;;;3.50;99.90;;;;;;5006065;28;20134;-84
2022/01/25 06:13:40;;;;;;;79.75;37.97;;;3.50;99.90;;;;;;5005394;28;20049;-83
2022/01/25 06:16:06;;;;;;;81.65;40.40;;;3.50;99.90;;;;;;5005957;28;20138;-83
2022/01/25 06:18:31;;;;;;;77.28;38.35;;;3.50;99.90;;;;;;5006151;28;20405;-83
2022/01/25 06:20:57;;;;;;;89.35;40.15;;;3.50;99.90;;;;;;5023547;28;20053;-83
2022/01/25 06:23:23;;;;;;;85.03;39.15;;;3.50;99.90;;;;;;5004989;28;20051;-83
2022/01/25 06:25:48;;;;;;;79.70;38.13;;;3.50;99.90;;;;;;5023429;28;20128;-83
2022/01/25 06:28:14;;;;;;;80.53;40.97;;;3.50;99.90;;;;;;5006291;28;20112;-83
2022/01/25 06:30:40;;;;;;;77.15;39.28;;;3.50;99.90;;;;;;5025239;28;20476;-83
2022/01/25 06:33:08;;;;;;;82.50;40.10;;;3.50;99.90;;;;;;5026090;28;20423;-83
2022/01/25 06:35:34;;;;;;;81.88;39.28;;;3.50;99.90;;;;;;5007914;28;20084;-83
2022/01/25 06:38:00;;;;;;;78.85;38.95;;;3.50;99.90;;;;;;5008259;28;20156;-83
2022/01/25 06:40:26;;;;;;;80.72;40.28;;;3.50;99.90;;;;;;5025591;28;20053;-83
2022/01/25 06:42:52;;;;;;;80.70;38.83;;;3.50;99.90;;;;;;5007676;28;20184;-84
2022/01/25 06:45:20;;;;;;;74.97;39.28;;;3.50;99.90;;;;;;5025234;28;20045;-83
2022/01/25 06:47:48;;;;;;;79.25;40.63;;;3.50;99.90;;;;;;5026365;28;20061;-83
2022/01/25 06:50:15;;;;;;;83.78;41.72;;;3.50;99.90;;;;;;5025120;28;20496;-83
2022/01/25 06:52:42;;;;;;;80.15;39.92;;;3.50;99.90;;;;;;5005877;28;20056;-83
2022/01/25 06:55:10;;;;;;;88.90;39.72;;;3.50;99.90;;;;;;5025686;28;20511;-83
2022/01/25 06:57:37;;;;;;;78.85;37.60;;;3.50;99.90;;;;;;5025302;28;20414;-82
2022/01/25 07:00:19;;;;;;;86.43;39.17;;;3.50;99.90;;;;;;5024595;28;20041;-84
2022/01/25 07:02:45;;;;;;;83.53;39.65;;;3.50;99.90;;;;;;5025189;28;20111;-84
2022/01/25 07:05:10;;;;;;;89.57;39.88;;;3.50;99.90;;;;;;5008174;28;20409;-83
2022/01/25 07:07:37;;;;;;;76.20;37.67;;;3.50;99.90;;;;;;5008222;28;20045;-83
2022/01/25 07:10:05;;;;;;;81.57;37.55;;;3.50;99.90;;;;;;5006706;28;20050;-83
2022/01/25 07:12:30;;;;;;;83.28;38.78;;;3.50;99.90;;;;;;5006152;28;20099;-83
2022/01/25 07:14:56;;;;;;;79.55;40.33;;;3.50;99.90;;;;;;5024129;28;20430;-82
2022/01/25 07:17:21;;;;;;;79.45;38.72;;;3.50;99.90;;;;;;5024696;28;20054;-82
2022/01/25 07:19:48;;;;;;;85.45;40.45;;;3.50;99.90;;;;;;5024475;28;20617;-83
2022/01/25 07:22:14;;;;;;;82.40;38.67;;;3.50;99.90;;;;;;5024966;28;20038;-82
2022/01/25 07:24:39;;;;;;;83.10;39.35;;;3.50;99.90;;;;;;5024745;28;20049;-83
2022/01/25 07:27:05;;;;;;;81.53;38.78;;;3.50;99.90;;;;;;5024120;28;20563;-83
2022/01/25 07:29:31;;;;;;;81.60;38.47;;;3.50;99.90;;;;;;5024071;28;20049;-83
2022/01/25 07:31:57;;;;;;;79.63;40.08;;;3.50;99.90;;;;;;5023832;28;20050;-83
2022/01/25 07:34:23;;;;;;;81.70;37.63;;;3.50;99.90;;;;;;5006090;28;20147;-83
2022/01/25 07:36:49;;;;;;;83.45;39.75;;;3.50;99.90;;;;;;5005894;28;20060;-83
2022/01/25 07:39:14;;;;;;;78.10;41.30;;;3.60;99.90;;;;;;5023802;28;20045;-84
2022/01/25 07:41:40;;;;;;;84.68;40.00;;;3.60;99.90;;;;;;5023857;28;20057;-83
2022/01/25 07:44:06;;;;;;;76.72;38.35;;;3.60;99.90;;;;;;4997600;28;20141;-83
2022/01/25 07:46:32;;;;;;;85.50;41.15;;;3.60;99.90;;;;;;5023310;28;20084;-84
2022/01/25 07:48:58;;;;;;;80.85;40.42;;;3.60;99.90;;;;;;5006312;28;20124;-83
2022/01/25 07:51:28;;;;;;;77.88;37.30;;;3.60;99.90;;;;;;5024425;28;20642;-83
2022/01/25 07:53:55;;;;;;;81.88;40.20;;;3.60;99.90;;;;;;5005572;28;20100;-84
2022/01/25 07:56:21;;;;;;;80.15;38.10;;;3.60;99.90;;;;;;5024028;28;20068;-83
2022/01/25 07:58:47;;;;;;;83.72;39.28;;;3.60;99.90;;;;;;5007700;28;20071;-84
2022/01/25 08:01:14;;;;;;;80.10;39.95;;;3.60;99.90;;;;;;5023789;28;20530;-84
2022/01/25 08:03:40;;;;;;;78.57;35.22;;;3.60;99.90;;;;;;5020909;28;20124;-83
2022/01/25 08:06:07;;;;;;;79.00;39.03;;;3.60;99.90;;;;;;5023732;28;20053;-84
2022/01/25 08:08:33;;;;;;;82.50;37.40;;;3.60;99.90;;;;;;5021440;28;20052;-83
2022/01/25 08:10:59;;;;;;;82.85;38.25;;;3.70;99.90;;;;;;5021058;28;20099;-83
2022/01/25 08:13:25;;;;;;;83.55;37.85;;;3.60;99.90;;;;;;5021534;28;20540;-84
2022/01/25 08:15:51;;;;;;;82.38;39.95;;;3.60;99.90;;;;;;5003018;28;20139;-84
2022/01/25 08:18:16;;;;;;;84.75;39.10;;;3.70;99.90;;;;;;4995109;28;20059;-84
2022/01/25 08:20:42;;;;;;;77.45;40.03;;;3.80;99.90;;;;;;5003577;28;20075;-84
2022/01/25 08:23:07;;;;;;;89.30;39.97;;;3.70;99.90;;;;;;5021110;28;20332;-83
2022/01/25 08:25:34;;;;;;;83.97;41.35;;;3.70;99.90;;;;;;5020813;28;20045;-83
2022/01/25 08:28:00;;;;;;;87.68;39.28;;;3.70;99.90;;;;;;5003193;28;20041;-84
2022/01/25 08:30:26;;;;;;;79.50;39.38;;;3.70;99.90;;;;;;5003546;28;20072;-83
2022/01/25 08:32:51;;;;;;;80.57;39.15;;;3.70;99.90;;;;;;5003450;28;20124;-83
2022/01/25 08:35:18;;;;;;;81.53;37.08;;;3.70;99.90;;;;;;5021975;28;20559;-84
2022/01/25 08:37:44;;;;;;;83.10;38.80;;;3.80;99.90;;;;;;5021889;28;20056;-83
2022/01/25 08:40:11;;;;;;;86.55;42.67;;;3.70;99.90;;;;;;5022648;28;20159;-84
2022/01/25 08:42:37;;;;;;;87.60;39.90;;;3.80;99.90;;;;;;5023309;28;20049;-84
2022/01/25 08:45:06;;;;;;;82.75;41.40;;;3.80;99.90;;;;;;5022481;28;20183;-83
2022/01/25 08:47:32;;;;;;;83.78;38.97;;;3.80;99.90;;;;;;5004502;28;20057;-83
2022/01/25 08:49:57;;;;;;;75.47;36.63;;;3.40;99.90;;;;;;5024246;28;20037;-84
2022/01/25 08:52:23;;;;;;;80.82;39.58;;;4.60;99.90;;;;;;5004308;28;20412;-84
2022/01/25 08:54:49;;;;;;;90.40;43.83;;;3.80;99.90;;;;;;5022443;28;20505;-84
2022/01/25 08:57:14;;;;;;;81.72;40.05;;;3.80;99.90;;;;;;5022212;28;20068;-83
2022/01/25 08:59:40;;;;;;;81.88;38.38;;;3.80;99.90;;;;;;5023932;28;20053;-83
2022/01/25 09:02:06;;;;;;;86.10;40.03;;;3.80;99.90;;;;;;5022891;28;20072;-83
2022/01/25 09:04:32;;;;;;;79.90;39.55;;;3.90;99.90;;;;;;5023487;28;20504;-84
2022/01/25 09:06:58;;;;;;;85.32;39.20;;;3.90;99.90;;;;;;5022610;28;20037;-83
2022/01/25 09:09:24;;;;;;;91.18;40.08;;;3.90;99.90;;;;;;5021961;28;20045;-83
2022/01/25 09:11:50;;;;;;;92.25;41.50;;;3.90;99.90;;;;;;5004655;28;20116;-83
2022/01/25 09:14:16;;;;;;;89.70;42.53;;;3.90;99.90;;;;;;5005126;28;20149;-84
2022/01/25 09:16:42;;;;;;;82.50;39.25;;;3.90;99.90;;;;;;5026293;28;20458;-84
2022/01/25 09:19:08;;;;;;;87.88;39.15;;;3.90;99.90;;;;;;5008657;28;20059;-84
2022/01/25 09:21:34;;;;;;;94.65;43.70;;;3.90;99.90;;;;;;5026565;28;20107;-83
2022/01/25 09:24:00;;;;;;;87.57;41.22;;;3.90;99.90;;;;;;5009958;28;20079;-82
2022/01/25 09:26:27;;;;;;;96.38;43.83;;;3.90;99.90;;;;;;5029102;28;20488;-82
2022/01/25 09:28:54;;;;;;;94.53;41.47;;;3.90;99.90;;;;;;5011872;28;20053;-82
2022/01/25 09:31:22;;;;;;;81.28;38.85;;;3.90;99.90;;;;;;5031015;28;20045;-82
2022/01/25 09:33:47;;;;;;;90.45;42.22;;;3.90;99.90;;;;;;5032327;28;20934;-82
2022/01/25 09:36:13;;;;;;;91.15;41.22;;;3.80;99.90;;;;;;5031592;28;20076;-83
2022/01/25 09:38:39;;;;;;;94.13;40.28;;;3.90;99.90;;;;;;5031374;28;20038;-82
2022/01/25 09:41:04;;;;;;;89.68;39.75;;;3.90;99.90;;;;;;5031232;28;20490;-82
2022/01/25 09:43:31;;;;;;;85.57;40.40;;;3.90;99.90;;;;;;5031368;28;20056;-82
2022/01/25 09:46:00;;;;;;;84.47;40.92;;;3.90;99.90;;;;;;5031124;28;20068;-82
2022/01/25 09:48:25;;;;;;;92.65;42.00;;;3.90;99.90;;;;;;5032577;28;20106;-82
2022/01/25 09:50:51;;;;;;;100.57;42.45;;;3.90;99.90;;;;;;5029536;28;20431;-82
2022/01/25 09:53:18;;;;;;;90.25;40.58;;;3.90;99.90;;;;;;5029404;28;20494;-83
2022/01/25 09:55:45;;;;;;;91.93;42.40;;;3.90;99.90;;;;;;5012496;28;20080;-83
2022/01/25 09:58:12;;;;;;;92.43;41.50;;;3.90;99.90;;;;;;5029371;28;20056;-82
2022/01/25 10:00:40;;;;;;;87.50;39.67;;;3.90;99.90;;;;;;5032289;28;20057;-83
2022/01/25 10:03:23;;;;;;;86.40;40.40;;;3.90;99.90;;;;;;5031132;28;20053;-82
2022/01/25 10:05:50;;;;;;;89.80;41.58;;;3.90;99.90;;;;;;5030967;28;20049;-80
2022/01/25 10:08:26;;;;;;;91.45;40.58;;;3.90;99.90;;;;;;5031528;28;20076;-82
2022/01/25 10:10:57;;;;;;;90.50;38.97;;;3.90;99.90;;;;;;5030987;28;20056;-83
2022/01/25 10:13:35;;;;;;;98.45;41.25;;;3.90;99.90;;;;;;5030520;28;20049;-82
2022/01/25 10:16:19;;;;;;;95.70;43.85;;;3.90;99.90;;;;;;5012061;28;20060;-83
2022/01/25 10:18:45;;;;;;;95.55;43.25;;;3.90;99.90;;;;;;5029403;28;20049;-81
2022/01/25 10:21:25;;;;;;;93.32;40.30;;;3.90;99.90;;;;;;5028992;28;20463;-82
2022/01/25 10:24:17;;;;;;;93.00;40.95;;;3.90;99.90;;;;;;5029125;28;20143;-82
2022/01/25 10:26:49;;;;;;;99.75;42.30;;;3.90;99.90;;;;;;5012271;28;20535;-82
2022/01/25 10:29:30;;;;;;;95.28;42.47;;;4.00;99.90;;;;;;5030473;28;20057;-82
2022/01/25 10:32:05;;;;;;;96.70;40.28;;;4.00;99.90;;;;;;5009538;28;20059;-82
2022/01/25 10:34:40;;;;;;;97.50;41.58;;;4.00;99.90;;;;;;5026353;28;20049;-81
2022/01/25 10:37:08;;;;;;;90.63;41.67;;;4.00;99.90;;;;;;5026742;28;20057;-81
2022/01/25 10:39:36;;;;;;;90.43;39.63;;;4.00;99.90;;;;;;5027250;28;20049;-82
2022/01/25 10:42:10;;;;;;;92.03;43.03;;;4.10;99.90;;;;;;5025665;28;20045;-82
2022/01/25 10:44:54;;;;;;;91.10;44.40;;;4.00;99.90;;;;;;5026896;28;20052;-81
2022/01/25 10:47:46;;;;;;;88.88;40.72;;;4.10;99.90;;;;;;4992384;28;20081;-82
2022/01/25 10:50:35;;;;;;;81.20;38.08;;;4.10;99.90;;;;;;4997937;28;20064;-82
2022/01/25 10:53:15;;;;;;;88.30;42.20;;;4.10;99.90;;;;;;5028690;28;20500;-82
2022/01/25 10:55:44;;;;;;;89.10;40.00;;;4.10;99.90;;;;;;5026955;28;20071;-81
2022/01/25 10:58:11;;;;;;;94.28;43.38;;;4.10;99.90;;;;;;5023929;28;20503;-82
2022/01/25 11:00:41;;;;;;;86.38;39.63;;;4.10;99.90;;;;;;5023915;28;20381;-82
2022/01/25 11:03:07;;;;;;;86.03;39.00;;;4.20;99.90;;;;;;5005090;28;20140;-81
2022/01/25 11:05:34;;;;;;;82.03;39.65;;;4.20;99.90;;;;;;5024568;28;20137;-82
2022/01/25 11:08:15;;;;;;;98.18;41.60;;;4.20;99.90;;;;;;5024157;28;20079;-82
2022/01/25 11:10:53;;;;;;;90.85;39.17;;;4.20;99.90;;;;;;5006341;28;20692;-82
2022/01/25 11:13:34;;;;;;;90.88;39.58;;;4.20;99.90;;;;;;5024253;28;20132;-81
2022/01/25 11:16:12;;;;;;;92.85;42.75;;;4.30;99.90;;;;;;5007226;28;20056;-82
2022/01/25 11:18:38;;;;;;;91.07;41.08;;;4.20;99.90;;;;;;5007268;28;20064;-81
2022/01/25 11:21:07;;;;;;;83.07;40.10;;;4.30;99.90;;;;;;5007161;28;20377;-81
2022/01/25 11:23:35;;;;;;;95.43;39.63;;;4.30;99.90;;;;;;5025196;28;20057;-81
2022/01/25 11:26:04;;;;;;;92.85;41.28;;;4.30;99.90;;;;;;5024883;28;20416;-81
2022/01/25 11:28:32;;;;;;;93.30;41.70;;;4.30;99.90;;;;;;5024371;28;20054;-81
2022/01/25 11:31:02;;;;;;;94.45;38.22;;;4.40;99.90;;;;;;5025850;28;20135;-78
2022/01/25 11:33:33;;;;;;;90.25;38.53;;;4.40;99.90;;;;;;5033842;28;20038;-81
2022/01/25 11:36:05;;;;;;;88.90;41.13;;;4.40;99.90;;;;;;5012483;28;20048;-81
2022/01/25 11:38:34;;;;;;;82.68;37.33;;;4.40;99.90;;;;;;5029090;28;20111;-81
2022/01/25 11:40:59;;;;;;;96.85;39.80;;;4.40;99.90;;;;;;5031069;28;20077;-82
2022/01/25 11:43:25;;;;;;;84.93;41.20;;;4.40;99.90;;;;;;5027611;28;20053;-82
2022/01/25 11:46:02;;;;;;;87.30;39.15;;;4.40;99.90;;;;;;5027217;28;20053;-81
2022/01/25 11:48:37;;;;;;;86.07;39.28;;;4.40;99.90;;;;;;5027211;28;20045;-81
2022/01/25 11:51:10;;;;;;;84.27;37.20;;;3.80;99.90;;;;;;5026795;28;20120;-81
2022/01/25 11:53:40;;;;;;;95.63;41.47;;;4.50;99.90;;;;;;5025990;28;20363;-82
2022/01/25 11:56:09;;;;;;;92.25;41.85;;;4.50;99.90;;;;;;5025181;28;20077;-82
2022/01/25 11:58:36;;;;;;;92.30;38.45;;;4.50;99.90;;;;;;5008582;28;20181;-83
2022/01/25 12:01:16;;;;;;;91.57;39.97;;;4.40;99.90;;;;;;5026601;28;20063;-82
2022/01/25 12:03:45;;;;;;;95.35;42.40;;;4.40;99.90;;;;;;5026892;28;20049;-82
2022/01/25 12:06:27;;;;;;;94.25;38.47;;;4.50;99.90;;;;;;5026533;28;20041;-81
2022/01/25 12:09:06;;;;;;;97.60;40.47;;;4.40;99.90;;;;;;5026828;28;20460;-80
2022/01/25 12:11:49;;;;;;;98.45;40.67;;;4.40;99.90;;;;;;5027663;28;20103;-81
2022/01/25 12:14:21;;;;;;;94.55;41.50;;;4.40;99.90;;;;;;5026642;28;20057;-82
2022/01/25 12:16:50;;;;;;;91.55;41.40;;;4.40;99.90;;;;;;5025956;28;20140;-82
2022/01/25 12:19:20;;;;;;;96.22;40.72;;;4.40;99.90;;;;;;5026373;28;20045;-82
2022/01/25 12:21:46;;;;;;;89.07;37.90;;;4.40;99.90;;;;;;5008980;28;20461;-82
2022/01/25 12:24:24;;;;;;;93.90;41.60;;;4.40;99.90;;;;;;5028289;28;20460;-81
2022/01/25 12:27:16;;;;;;;87.28;38.85;;;4.40;99.90;;;;;;5026381;28;20053;-81
2022/01/25 12:29:46;;;;;;;88.78;39.35;;;4.40;99.90;;;;;;4993591;28;20041;-81
2022/01/25 12:32:24;;;;;;;97.03;39.08;;;4.40;99.90;;;;;;5028946;28;20060;-81
2022/01/25 12:35:05;;;;;;;89.78;38.65;;;4.40;99.90;;;;;;5036626;28;20056;-82
2022/01/25 12:37:43;;;;;;;92.80;41.35;;;4.40;99.90;;;;;;5010461;28;20077;-82
2022/01/25 12:40:31;;;;;;;90.30;38.30;;;4.40;99.90;;;;;;5028698;28;20053;-82
2022/01/25 12:43:06;;;;;;;96.00;40.00;;;4.40;99.90;;;;;;4994483;28;20416;-82
2022/01/25 12:45:33;;;;;;;87.03;38.55;;;4.40;99.90;;;;;;5026599;28;20129;-80
2022/01/25 12:48:05;;;;;;;78.18;33.55;;;4.40;99.90;;;;;;5027038;28;20049;-81
2022/01/25 12:50:31;;;;;;;97.45;42.00;;;4.40;99.90;;;;;;5027438;28;20053;-81
2022/01/25 12:53:03;;;;;;;91.97;41.10;;;4.40;99.90;;;;;;5013233;28;20045;-81
2022/01/25 12:55:34;;;;;;;89.10;37.80;;;4.40;99.90;;;;;;5029342;28;20092;-81
2022/01/25 12:58:01;;;;;;;93.78;39.22;;;4.40;99.90;;;;;;5011579;28;20056;-81
2022/01/25 13:00:33;;;;;;;92.85;41.15;;;4.40;99.90;;;;;;5029098;28;20081;-82
2022/01/25 13:03:14;;;;;;;94.35;40.35;;;4.30;99.90;;;;;;4995952;28;20538;-81
2022/01/25 13:05:47;;;;;;;90.38;40.67;;;4.30;99.90;;;;;;5026927;28;20045;-81
2022/01/25 13:08:22;;;;;;;88.90;36.72;;;4.30;99.90;;;;;;5026903;28;20483;-81
2022/01/25 13:10:51;;;;;;;90.03;38.80;;;4.30;99.90;;;;;;5026441;28;20045;-81
2022/01/25 13:13:30;;;;;;;97.20;42.28;;;4.50;99.90;;;;;;5026999;28;20057;-80
2022/01/25 13:15:57;;;;;;;82.30;36.05;;;4.20;99.90;;;;;;5027450;28;20668;-81
2022/01/25 13:18:26;;;;;;;96.90;41.50;;;4.20;99.90;;;;;;4978238;28;20060;-80
2022/01/25 13:21:00;;;;;;;87.03;36.17;;;5.20;99.90;;;;;;5028578;28;20463;-81
2022/01/25 13:23:26;;;;;;;94.13;39.47;;;4.00;99.90;;;;;;5027427;28;20041;-81
2022/01/25 13:26:05;;;;;;;96.05;42.28;;;4.20;99.90;;;;;;5028836;28;20511;-80
2022/01/25 13:28:36;;;;;;;92.85;36.10;;;4.20;99.90;;;;;;5008142;28;20096;-81
2022/01/25 13:31:09;;;;;;;91.20;40.50;;;4.10;99.90;;;;;;5026552;28;20057;-81
2022/01/25 13:33:35;;;;;;;107.35;42.47;;;4.10;99.90;;;;;;5008596;28;20423;-82
2022/01/25 13:36:01;;;;;;;97.35;41.65;;;4.10;99.90;;;;;;5026349;28;20064;-81
2022/01/25 13:38:32;;;;;;;103.00;43.22;;;4.20;99.90;;;;;;5027569;28;20527;-81
2022/01/25 13:41:20;;;;;;;98.28;43.08;;;4.10;99.90;;;;;;5027530;28;20049;-81
2022/01/25 13:46:42;;;;;;;100.10;41.13;;;4.20;99.90;;;;;;5008789;28;20128;-81
2022/01/25 13:49:18;;;;;;;98.90;39.47;;;4.10;99.90;;;;;;5008771;28;20355;-81
2022/01/25 13:51:50;;;;;;;109.50;44.10;;;4.20;99.90;;;;;;5013360;28;20057;-81
2022/01/25 13:54:19;;;;;;;94.53;41.05;;;4.40;99.90;;;;;;5029165;28;20080;-82
2022/01/25 13:56:45;;;;;;;106.88;43.67;;;4.10;99.90;;;;;;4995562;28;20045;-81
2022/01/25 13:59:11;;;;;;;98.78;44.10;;;4.10;99.90;;;;;;5030517;28;20124;-81
2022/01/25 14:01:40;;;;;;;110.18;44.20;;;4.10;99.90;;;;;;5030179;28;20093;-82
2022/01/25 14:04:19;;;;;;;104.85;43.53;;;4.10;99.90;;;;;;5031775;28;20049;-82
2022/01/25 14:06:51;;;;;;;111.00;45.45;;;4.00;99.90;;;;;;5030916;28;20053;-80
2022/01/25 14:09:23;;;;;;;106.55;46.42;;;4.00;99.90;;;;;;5030346;28;20136;-82
2022/01/25 14:23:21;;;;;;;104.45;46.85;;;4.00;99.90;;;;;;5010695;28;20141;-82
2022/01/25 14:25:48;;;;;;;;;;;4.00;99.90;;;;;;5029658;28;20041;-80
2022/01/25 14:28:19;;;;;;;103.88;42.85;;;4.00;99.90;;;;;;5029022;28;19976;-81
2022/01/25 14:30:47;;;;;;;108.03;44.08;;;4.00;99.90;;;;;;5011135;28;20067;-80
2022/01/25 14:33:20;;;;;;;107.50;44.78;;;4.00;99.90;;;;;;5030275;28;20071;-81
2022/01/25 14:36:05;;;;;;;103.22;41.15;;;4.00;99.90;;;;;;5028136;28;20077;-81
2022/01/25 14:38:40;;;;;;;110.88;46.90;;;4.00;99.90;;;;;;5029255;28;20049;-81
2022/01/25 14:41:08;;;;;;;114.90;47.08;;;4.00;99.90;;;;;;5028167;28;20440;-82
2022/01/25 14:43:37;;;;;;;111.00;45.38;;;4.00;99.90;;;;;;5028324;28;20078;-82
2022/01/25 14:46:09;;;;;;;112.07;46.90;;;4.10;99.90;;;;;;5029170;28;20049;-80
2022/01/25 14:48:37;;;;;;;100.57;42.25;;;4.00;99.90;;;;;;5028292;28;20045;-81
2022/01/25 14:51:06;;;;;;;109.60;43.80;;;4.00;99.90;;;;;;5010037;28;20513;-81
2022/01/25 14:53:32;;;;;;;92.90;39.53;;;4.00;99.90;;;;;;5010509;28;20080;-82